createdAt,value
2018-04-13T00:00:32.227Z,0
2018-04-13T00:01:43.817Z,0
2018-04-13T00:02:55.641Z,0
2018-04-13T00:04:07.582Z,0
2018-04-13T00:05:19.599Z,0
2018-04-13T00:06:30.031Z,0
2018-04-13T00:07:40.620Z,0
2018-04-13T00:08:52.311Z,0
2018-04-13T00:10:03.527Z,0
2018-04-13T00:11:15.894Z,0
2018-04-13T00:12:29.127Z,0
2018-04-13T00:13:41.336Z,0
2018-04-13T00:14:52.159Z,0
2018-04-13T00:16:03.343Z,0
2018-04-13T00:17:14.199Z,0
2018-04-13T00:18:24.649Z,0
2018-04-13T00:19:35.531Z,0
2018-04-13T00:20:47.313Z,0
2018-04-13T00:22:05.641Z,0
2018-04-13T00:23:17.393Z,0
2018-04-13T00:24:28.273Z,0
2018-04-13T00:25:41.707Z,0
2018-04-13T00:26:52.873Z,0
2018-04-13T00:28:04.149Z,0
2018-04-13T00:29:15.948Z,0
2018-04-13T00:30:27.332Z,0
2018-04-13T00:31:39.024Z,0
2018-04-13T00:32:49.721Z,0
2018-04-13T00:34:00.721Z,0
2018-04-13T00:35:12.118Z,0
2018-04-13T00:36:24.775Z,0
2018-04-13T00:37:35.715Z,0
2018-04-13T00:38:50.782Z,0
2018-04-13T00:40:03.197Z,0
2018-04-13T00:41:14.874Z,0
2018-04-13T00:42:27.104Z,0
2018-04-13T00:43:37.909Z,0
2018-04-13T00:44:48.927Z,0
2018-04-13T00:46:00.478Z,0
2018-04-13T00:47:12.057Z,0
2018-04-13T00:48:22.216Z,0
2018-04-13T00:49:33.197Z,0
2018-04-13T00:50:43.787Z,0
2018-04-13T00:51:56.122Z,0
2018-04-13T00:53:08.107Z,0
2018-04-13T00:54:19.082Z,0
2018-04-13T00:55:31.736Z,0
2018-04-13T00:56:44.031Z,0
2018-04-13T00:57:54.393Z,0
2018-04-13T00:59:05.442Z,0
2018-04-13T01:00:17.733Z,0
2018-04-13T01:01:28.157Z,0
2018-04-13T01:02:38.740Z,0
2018-04-13T01:03:50.788Z,0
2018-04-13T01:05:01.989Z,0
2018-04-13T01:06:12.927Z,0
2018-04-13T01:07:23.645Z,0
2018-04-13T01:08:35.478Z,0
2018-04-13T01:09:46.520Z,0
2018-04-13T01:10:56.891Z,0
2018-04-13T01:12:07.973Z,0
2018-04-13T01:13:19.022Z,0
2018-04-13T01:14:29.779Z,0
2018-04-13T01:15:41.403Z,0
2018-04-13T01:16:51.771Z,0
2018-04-13T01:18:04.051Z,0
2018-04-13T01:19:15.659Z,0
2018-04-13T01:20:27.251Z,0
2018-04-13T01:21:37.661Z,0
2018-04-13T01:22:48.787Z,0
2018-04-13T01:24:01.447Z,0
2018-04-13T01:25:12.628Z,0
2018-04-13T01:26:22.531Z,0
2018-04-13T01:27:33.708Z,0
2018-04-13T01:28:44.144Z,0
2018-04-13T01:29:55.517Z,0
2018-04-13T01:31:08.321Z,0
2018-04-13T01:32:18.566Z,0
2018-04-13T01:33:29.764Z,0
2018-04-13T01:34:40.289Z,0
2018-04-13T01:35:54.138Z,0
2018-04-13T01:37:05.697Z,0
2018-04-13T01:38:17.555Z,0
2018-04-13T01:39:28.777Z,0
2018-04-13T01:40:39.426Z,0
2018-04-13T01:41:53.276Z,0
2018-04-13T01:43:04.395Z,0
2018-04-13T01:44:15.782Z,0
2018-04-13T01:45:26.934Z,0
2018-04-13T01:46:38.844Z,0
2018-04-13T01:47:49.929Z,0
2018-04-13T01:49:01.515Z,0
2018-04-13T01:50:12.928Z,0
2018-04-13T01:51:29.732Z,0
2018-04-13T01:52:43.592Z,0
2018-04-13T01:53:55.711Z,0
2018-04-13T01:55:06.478Z,0
2018-04-13T01:56:17.837Z,0
2018-04-13T01:57:29.825Z,0
2018-04-13T01:58:41.481Z,0
2018-04-13T01:59:53.748Z,0
2018-04-13T02:01:05.755Z,0
2018-04-13T02:02:22.579Z,0
2018-04-13T02:03:32.959Z,0
2018-04-13T02:04:46.229Z,0
2018-04-13T02:05:58.599Z,0
2018-04-13T02:07:12.857Z,0
2018-04-13T02:08:23.539Z,0
2018-04-13T02:09:50.962Z,0
2018-04-13T02:11:08.180Z,0
2018-04-13T02:12:18.957Z,0
2018-04-13T02:13:29.763Z,0
2018-04-13T02:14:41.462Z,0
2018-04-13T02:15:52.240Z,0
2018-04-13T02:17:03.392Z,0
2018-04-13T02:18:15.663Z,0
2018-04-13T02:19:27.024Z,0
2018-04-13T02:20:40.570Z,0
2018-04-13T02:21:51.784Z,0
2018-04-13T02:23:03.464Z,0
2018-04-13T02:24:15.894Z,0
2018-04-13T02:25:27.246Z,0
2018-04-13T02:26:38.719Z,0
2018-04-13T02:27:50.812Z,0
2018-04-13T02:29:01.497Z,0
2018-04-13T02:30:12.679Z,0
2018-04-13T02:31:39.066Z,0
2018-04-13T02:32:49.245Z,0
2018-04-13T02:34:00.968Z,0
2018-04-13T02:35:12.557Z,0
2018-04-13T02:36:22.788Z,0
2018-04-13T02:37:36.646Z,0
2018-04-13T02:38:47.061Z,0
2018-04-13T02:39:58.566Z,0
2018-04-13T02:41:09.779Z,0
2018-04-13T02:42:19.789Z,0
2018-04-13T02:43:30.111Z,0
2018-04-13T02:44:41.683Z,0
2018-04-13T02:45:53.451Z,0
2018-04-13T02:47:05.371Z,0
2018-04-13T02:48:17.224Z,0
2018-04-13T02:49:31.486Z,0
2018-04-13T02:50:43.810Z,0
2018-04-13T02:51:54.436Z,0
2018-04-13T02:53:05.435Z,0
2018-04-13T02:54:17.312Z,0
2018-04-13T02:55:27.326Z,0
2018-04-13T02:56:40.443Z,0
2018-04-13T02:57:51.421Z,0
2018-04-13T02:59:02.565Z,0
2018-04-13T03:00:12.931Z,0
2018-04-13T03:01:24.663Z,0
2018-04-13T03:02:35.081Z,0
2018-04-13T03:03:45.825Z,0
2018-04-13T03:04:56.654Z,0
2018-04-13T03:06:08.116Z,0
2018-04-13T03:07:22.235Z,0
2018-04-13T03:08:33.259Z,0
2018-04-13T03:09:44.141Z,0
2018-04-13T03:10:57.901Z,0
2018-04-13T03:12:08.668Z,0
2018-04-13T03:13:22.146Z,0
2018-04-13T03:14:34.526Z,0
2018-04-13T03:15:46.931Z,0
2018-04-13T03:16:58.851Z,0
2018-04-13T03:18:10.183Z,0
2018-04-13T03:19:21.162Z,0
2018-04-13T03:20:32.958Z,0
2018-04-13T03:21:43.815Z,0
2018-04-13T03:22:55.765Z,0
2018-04-13T03:24:06.725Z,0
2018-04-13T03:25:17.501Z,0
2018-04-13T03:26:29.791Z,0
2018-04-13T03:27:41.821Z,0
2018-04-13T03:28:53.330Z,0
2018-04-13T03:30:05.568Z,0
2018-04-13T03:31:17.375Z,0
2018-04-13T03:32:28.142Z,0
2018-04-13T03:33:43.804Z,0
2018-04-13T03:34:54.770Z,0
2018-04-13T03:36:07.048Z,0
2018-04-13T03:37:17.838Z,0
2018-04-13T03:38:32.075Z,0
2018-04-13T03:39:43.709Z,0
2018-04-13T03:40:56.687Z,0
2018-04-13T03:42:08.092Z,0
2018-04-13T03:43:20.881Z,0
2018-04-13T03:44:32.141Z,0
2018-04-13T03:45:43.020Z,0
2018-04-13T03:46:53.347Z,0
2018-04-13T03:48:05.015Z,0
2018-04-13T03:49:17.179Z,0
2018-04-13T03:50:27.815Z,4
2018-04-13T03:51:40.016Z,0
2018-04-13T03:52:53.016Z,0
2018-04-13T03:54:05.295Z,4
2018-04-13T03:55:24.180Z,4
2018-04-13T03:56:38.686Z,4
2018-04-13T03:57:50.989Z,4
2018-04-13T03:59:02.699Z,4
2018-04-13T04:00:14.911Z,12
2018-04-13T04:01:27.553Z,8
2018-04-13T04:02:39.380Z,12
2018-04-13T04:03:51.643Z,16
2018-04-13T04:05:03.005Z,16
2018-04-13T04:06:14.262Z,20
2018-04-13T04:07:24.993Z,24
2018-04-13T04:08:36.662Z,32
2018-04-13T04:09:49.907Z,36
2018-04-13T04:11:01.738Z,44
2018-04-13T04:12:12.911Z,52
2018-04-13T04:13:26.254Z,56
2018-04-13T04:14:53.358Z,68
2018-04-13T04:16:05.832Z,80
2018-04-13T04:17:18.048Z,88
2018-04-13T04:18:29.279Z,100
2018-04-13T04:19:40.146Z,112
2018-04-13T04:20:51.194Z,124
2018-04-13T04:22:02.805Z,144
2018-04-13T04:23:14.049Z,160
2018-04-13T04:24:27.063Z,176
2018-04-13T04:25:39.924Z,192
2018-04-13T04:26:52.228Z,212
2018-04-13T04:28:03.177Z,232
2018-04-13T04:29:13.664Z,256
2018-04-13T04:30:25.282Z,276
2018-04-13T04:31:39.036Z,300
2018-04-13T04:32:49.635Z,320
2018-04-13T04:34:05.497Z,340
2018-04-13T04:35:17.341Z,360
2018-04-13T04:36:47.991Z,380
2018-04-13T04:37:58.630Z,400
2018-04-13T04:39:10.608Z,416
2018-04-13T04:40:22.861Z,436
2018-04-13T04:41:34.428Z,456
2018-04-13T04:42:47.050Z,476
2018-04-13T04:43:58.129Z,496
2018-04-13T04:45:10.639Z,520
2018-04-13T04:46:22.086Z,544
2018-04-13T04:47:34.164Z,568
2018-04-13T04:48:47.183Z,592
2018-04-13T04:49:59.249Z,624
2018-04-13T04:51:10.591Z,648
2018-04-13T04:52:26.882Z,676
2018-04-13T04:53:39.339Z,708
2018-04-13T04:54:49.448Z,732
2018-04-13T04:56:02.888Z,768
2018-04-13T04:57:16.484Z,808
2018-04-13T04:58:29.368Z,848
2018-04-13T04:59:40.292Z,896
2018-04-13T05:00:52.564Z,952
2018-04-13T05:02:03.432Z,1012
2018-04-13T05:03:15.463Z,1084
2018-04-13T05:04:27.332Z,1156
2018-04-13T05:05:38.510Z,1224
2018-04-13T05:06:52.171Z,1292
2018-04-13T05:08:05.137Z,1352
2018-04-13T05:09:16.124Z,1400
2018-04-13T05:10:29.529Z,1464
2018-04-13T05:11:41.607Z,1528
2018-04-13T05:12:53.316Z,1592
2018-04-13T05:14:04.359Z,1660
2018-04-13T05:15:16.082Z,1716
2018-04-13T05:16:27.707Z,1772
2018-04-13T05:17:41.518Z,1828
2018-04-13T05:18:52.155Z,1888
2018-04-13T05:20:03.976Z,1944
2018-04-13T05:21:15.814Z,1992
2018-04-13T05:22:27.081Z,2028
2018-04-13T05:23:40.595Z,2076
2018-04-13T05:24:52.047Z,2112
2018-04-13T05:26:02.762Z,2156
2018-04-13T05:27:15.311Z,2204
2018-04-13T05:28:27.134Z,2260
2018-04-13T05:29:37.765Z,2316
2018-04-13T05:30:48.952Z,2360
2018-04-13T05:32:00.620Z,2392
2018-04-13T05:33:18.486Z,2416
2018-04-13T05:34:29.727Z,2440
2018-04-13T05:35:46.137Z,2448
2018-04-13T05:36:58.710Z,2444
2018-04-13T05:38:11.651Z,2436
2018-04-13T05:39:24.505Z,2436
2018-04-13T05:40:34.909Z,2440
2018-04-13T05:41:46.698Z,2448
2018-04-13T05:42:59.227Z,2472
2018-04-13T05:44:13.196Z,2516
2018-04-13T05:45:24.896Z,2580
2018-04-13T05:46:39.177Z,2672
2018-04-13T05:47:52.020Z,2780
2018-04-13T05:49:03.410Z,2876
2018-04-13T05:50:17.883Z,2964
2018-04-13T05:51:29.240Z,3048
2018-04-13T05:52:39.618Z,3140
2018-04-13T05:53:51.783Z,3244
2018-04-13T05:55:02.982Z,3348
2018-04-13T05:56:16.883Z,3464
2018-04-13T05:57:29.015Z,3580
2018-04-13T05:58:41.444Z,3684
2018-04-13T05:59:51.931Z,3764
2018-04-13T06:01:04.395Z,3848
2018-04-13T06:02:15.619Z,3932
2018-04-13T06:03:26.976Z,4028
2018-04-13T06:04:41.463Z,4140
2018-04-13T06:05:53.164Z,4216
2018-04-13T06:07:03.624Z,4280
2018-04-13T06:08:15.412Z,4328
2018-04-13T06:09:27.722Z,4396
2018-04-13T06:10:39.698Z,4424
2018-04-13T06:11:53.962Z,4456
2018-04-13T06:13:05.543Z,4488
2018-04-13T06:14:17.301Z,4532
2018-04-13T06:15:28.167Z,4604
2018-04-13T06:16:40.158Z,4696
2018-04-13T06:17:51.796Z,4796
2018-04-13T06:19:05.274Z,4884
2018-04-13T06:20:17.699Z,4976
2018-04-13T06:21:29.792Z,5104
2018-04-13T06:22:41.556Z,5228
2018-04-13T06:23:53.030Z,5344
2018-04-13T06:25:07.428Z,5460
2018-04-13T06:26:21.418Z,5600
2018-04-13T06:27:32.902Z,5728
2018-04-13T06:28:45.929Z,5824
2018-04-13T06:29:58.610Z,5880
2018-04-13T06:31:11.042Z,5912
2018-04-13T06:32:22.567Z,5940
2018-04-13T06:33:33.796Z,6008
2018-04-13T06:34:45.694Z,6116
2018-04-13T06:35:57.402Z,6256
2018-04-13T06:37:08.698Z,6372
2018-04-13T06:38:19.818Z,6464
2018-04-13T06:39:30.557Z,6524
2018-04-13T06:40:41.960Z,6548
2018-04-13T06:41:53.299Z,6556
2018-04-13T06:43:05.661Z,6572
2018-04-13T06:44:18.221Z,6656
2018-04-13T06:45:31.622Z,6792
2018-04-13T06:46:42.721Z,6916
2018-04-13T06:47:53.339Z,7004
2018-04-13T06:49:04.993Z,7064
2018-04-13T06:50:15.856Z,7132
2018-04-13T06:51:30.111Z,7212
2018-04-13T06:52:41.284Z,7272
2018-04-13T06:53:53.502Z,7312
2018-04-13T06:55:04.113Z,7360
2018-04-13T06:56:17.260Z,7412
2018-04-13T06:57:28.489Z,7440
2018-04-13T06:58:39.102Z,7504
2018-04-13T06:59:49.964Z,7612
2018-04-13T07:01:00.997Z,7784
2018-04-13T07:02:12.366Z,7992
2018-04-13T07:03:24.371Z,8184
2018-04-13T07:04:36.413Z,8320
2018-04-13T07:05:47.620Z,8476
2018-04-13T07:06:59.496Z,8640
2018-04-13T07:08:11.377Z,8808
2018-04-13T07:09:21.712Z,8960
2018-04-13T07:10:32.955Z,9080
2018-04-13T07:11:45.980Z,9160
2018-04-13T07:12:57.191Z,9216
2018-04-13T07:14:11.202Z,9312
2018-04-13T07:15:22.060Z,9452
2018-04-13T07:16:33.842Z,9588
2018-04-13T07:17:47.498Z,9696
2018-04-13T07:19:12.358Z,9776
2018-04-13T07:20:23.815Z,9900
2018-04-13T07:21:35.230Z,10040
2018-04-13T07:22:46.702Z,10212
2018-04-13T07:24:12.772Z,10524
2018-04-13T07:25:23.616Z,10620
2018-04-13T07:26:36.641Z,10624
2018-04-13T07:27:51.370Z,10608
2018-04-13T07:29:03.524Z,10628
2018-04-13T07:30:15.297Z,10644
2018-04-13T07:31:26.968Z,10676
2018-04-13T07:32:38.940Z,10704
2018-04-13T07:33:50.672Z,10672
2018-04-13T07:35:03.893Z,10644
2018-04-13T07:36:18.095Z,10636
2018-04-13T07:37:35.862Z,10588
2018-04-13T07:38:49.508Z,10440
2018-04-13T07:40:02.776Z,10200
2018-04-13T07:41:15.035Z,10032
2018-04-13T07:42:29.868Z,9880
2018-04-13T07:43:43.466Z,9696
2018-04-13T07:44:59.544Z,9436
2018-04-13T07:46:10.876Z,9136
2018-04-13T07:47:25.487Z,8864
2018-04-13T07:48:40.338Z,8640
2018-04-13T07:49:52.922Z,8468
2018-04-13T07:51:06.812Z,8232
2018-04-13T07:52:21.942Z,7696
2018-04-13T07:53:33.732Z,7112
2018-04-13T07:54:44.145Z,6720
2018-04-13T07:55:56.849Z,6588
2018-04-13T07:57:09.275Z,6724
2018-04-13T07:58:22.606Z,6968
2018-04-13T07:59:43.617Z,7244
2018-04-13T08:00:55.315Z,7476
2018-04-13T08:02:07.556Z,7600
2018-04-13T08:03:27.454Z,7836
2018-04-13T08:04:39.161Z,8104
2018-04-13T08:05:51.608Z,8216
2018-04-13T08:07:02.791Z,8052
2018-04-13T08:08:15.348Z,7748
2018-04-13T08:09:27.165Z,7520
2018-04-13T08:10:37.951Z,7568
2018-04-13T08:11:49.147Z,7984
2018-04-13T08:13:00.902Z,8752
2018-04-13T08:14:12.225Z,9788
2018-04-13T08:15:24.090Z,10888
2018-04-13T08:16:35.170Z,11428
2018-04-13T08:17:46.790Z,11036
2018-04-13T08:19:00.170Z,10168
2018-04-13T08:20:11.050Z,9612
2018-04-13T08:21:21.257Z,9292
2018-04-13T08:22:31.428Z,8908
2018-04-13T08:23:41.615Z,8232
2018-04-13T08:24:51.779Z,7852
2018-04-13T08:26:01.574Z,7916
2018-04-13T08:27:11.723Z,8392
2018-04-13T08:28:21.873Z,9092
2018-04-13T08:29:32.056Z,9452
2018-04-13T08:30:42.282Z,9032
2018-04-13T08:31:52.468Z,8064
2018-04-13T08:33:02.670Z,7260
2018-04-13T08:34:12.839Z,6968
2018-04-13T08:35:22.823Z,6900
2018-04-13T08:36:33.148Z,6476
2018-04-13T08:37:43.436Z,6096
2018-04-13T08:38:53.672Z,5956
2018-04-13T08:40:03.940Z,5948
2018-04-13T08:41:14.086Z,5988
2018-04-13T08:42:24.296Z,5908
2018-04-13T08:43:34.689Z,5620
2018-04-13T08:44:44.918Z,5432
2018-04-13T08:45:55.154Z,5632
2018-04-13T08:47:05.315Z,6224
2018-04-13T08:48:15.228Z,7012
2018-04-13T08:49:25.588Z,7588
2018-04-13T08:50:35.909Z,7564
2018-04-13T08:51:46.227Z,6972
2018-04-13T08:52:56.499Z,6212
2018-04-13T08:54:06.921Z,5672
2018-04-13T08:55:17.182Z,5356
2018-04-13T08:56:27.423Z,5132
2018-04-13T08:57:37.186Z,4988
2018-04-13T08:58:47.378Z,4900
2018-04-13T08:59:57.540Z,4784
2018-04-13T09:01:07.819Z,4524
2018-04-13T09:02:18.067Z,4200
2018-04-13T09:03:28.253Z,4124
2018-04-13T09:04:38.551Z,4244
2018-04-13T09:05:48.700Z,4424
2018-04-13T09:06:58.920Z,4848
2018-04-13T09:08:09.201Z,5676
2018-04-13T09:09:19.402Z,6748
2018-04-13T09:10:29.596Z,7748
2018-04-13T09:11:39.827Z,8436
2018-04-13T09:12:50.025Z,8964
2018-04-13T09:14:00.280Z,9564
2018-04-13T09:15:10.453Z,9764
2018-04-13T09:16:20.860Z,9548
2018-04-13T09:17:30.755Z,9204
2018-04-13T09:18:40.918Z,8828
2018-04-13T09:19:51.071Z,8724
2018-04-13T09:21:01.325Z,8496
2018-04-13T09:22:11.472Z,8464
2018-04-13T09:23:21.624Z,8820
2018-04-13T09:24:31.806Z,9196
2018-04-13T09:25:42.056Z,9296
2018-04-13T09:26:52.260Z,9196
2018-04-13T09:28:02.738Z,8808
2018-04-13T09:29:12.946Z,8060
2018-04-13T09:30:23.123Z,7096
2018-04-13T09:31:33.311Z,6156
2018-04-13T09:32:43.440Z,6024
2018-04-13T09:33:53.638Z,6536
2018-04-13T09:35:03.849Z,6996
2018-04-13T09:36:14.120Z,7028
2018-04-13T09:37:24.329Z,7024
2018-04-13T09:38:34.551Z,7732
2018-04-13T09:39:44.460Z,9152
2018-04-13T09:40:54.631Z,10328
2018-04-13T09:42:04.770Z,11224
2018-04-13T09:43:15.057Z,11552
2018-04-13T09:44:25.428Z,11276
2018-04-13T09:45:35.334Z,11176
2018-04-13T09:46:45.501Z,10932
2018-04-13T09:47:55.748Z,10740
2018-04-13T09:49:05.642Z,10220
2018-04-13T09:50:15.798Z,9496
2018-04-13T09:51:25.980Z,8968
2018-04-13T09:52:36.160Z,8988
2018-04-13T09:53:46.429Z,9336
2018-04-13T09:54:56.656Z,9236
2018-04-13T09:56:06.851Z,8900
2018-04-13T09:57:17.209Z,8728
2018-04-13T09:58:27.367Z,8704
2018-04-13T09:59:37.529Z,8532
2018-04-13T10:00:47.736Z,8188
2018-04-13T10:01:57.935Z,8316
2018-04-13T10:03:07.865Z,9668
2018-04-13T10:04:18.060Z,12044
2018-04-13T10:05:28.272Z,14000
2018-04-13T10:06:38.468Z,14528
2018-04-13T10:07:48.415Z,14256
2018-04-13T10:08:58.577Z,13808
2018-04-13T10:10:08.759Z,13468
2018-04-13T10:11:18.916Z,13432
2018-04-13T10:12:29.068Z,14452
2018-04-13T10:13:39.261Z,15872
2018-04-13T10:14:49.543Z,16032
2018-04-13T10:15:59.732Z,15744
2018-04-13T10:17:09.979Z,16256
2018-04-13T10:18:20.165Z,17472
2018-04-13T10:19:30.413Z,20512
2018-04-13T10:20:40.587Z,25312
2018-04-13T10:21:50.935Z,27648
2018-04-13T10:23:01.231Z,27040
2018-04-13T10:24:11.423Z,29632
2018-04-13T10:25:21.580Z,28928
2018-04-13T10:26:31.766Z,28832
2018-04-13T10:27:41.960Z,33472
2018-04-13T10:28:52.235Z,34528
2018-04-13T10:30:02.451Z,29632
2018-04-13T10:31:12.630Z,99104
2018-04-13T10:32:22.780Z,98592
2018-04-13T10:33:32.709Z,70880
2018-04-13T10:34:42.890Z,30112
2018-04-13T10:35:53.060Z,30144
2018-04-13T10:37:03.222Z,19392
2018-04-13T10:38:13.453Z,15296
2018-04-13T10:39:24.594Z,16704
2018-04-13T10:40:34.801Z,13896
2018-04-13T10:41:44.999Z,15136
2018-04-13T10:42:55.174Z,16192
2018-04-13T10:44:05.467Z,17472
2018-04-13T10:45:15.721Z,54368
2018-04-13T10:46:25.889Z,22400
2018-04-13T10:47:36.061Z,22400
2018-04-13T10:48:46.246Z,26080
2018-04-13T10:49:56.411Z,17440
2018-04-13T10:51:06.741Z,15200
2018-04-13T10:53:29.879Z,11124
2018-04-13T10:54:40.035Z,9000
2018-04-13T10:55:50.195Z,6328
2018-04-13T10:57:00.356Z,5808
2018-04-13T10:58:10.604Z,6680
2018-04-13T10:59:20.846Z,6840
2018-04-13T11:00:31.054Z,5588
2018-04-13T11:01:41.281Z,6720
2018-04-13T11:02:51.466Z,9436
2018-04-13T11:04:01.709Z,12072
2018-04-13T11:05:11.654Z,9916
2018-04-13T11:06:21.465Z,8228
2018-04-13T11:07:31.603Z,7364
2018-04-13T11:08:41.777Z,8520
2018-04-13T11:09:51.930Z,10672
2018-04-13T11:11:02.144Z,11248
2018-04-13T11:12:12.322Z,12208
2018-04-13T11:13:22.492Z,11928
2018-04-13T11:14:32.774Z,12588
2018-04-13T11:15:42.972Z,14832
2018-04-13T11:16:53.287Z,19840
2018-04-13T11:18:03.624Z,18624
2018-04-13T11:19:13.812Z,19200
2018-04-13T11:20:23.962Z,11088
2018-04-13T11:21:34.139Z,8568
2018-04-13T11:22:44.357Z,6620
2018-04-13T11:23:54.493Z,6412
2018-04-13T11:25:04.749Z,7776
2018-04-13T11:26:14.944Z,8300
2018-04-13T11:27:25.158Z,8868
2018-04-13T11:28:35.340Z,11544
2018-04-13T11:29:45.320Z,10540
2018-04-13T11:30:55.243Z,9012
2018-04-13T11:32:05.628Z,7768
2018-04-13T11:33:15.597Z,7012
2018-04-13T11:34:25.826Z,6808
2018-04-13T11:35:36.140Z,6548
2018-04-13T11:36:46.319Z,5848
2018-04-13T11:37:56.497Z,4656
2018-04-13T11:39:06.420Z,3500
2018-04-13T11:40:16.613Z,2664
2018-04-13T11:41:26.828Z,2260
2018-04-13T11:42:37.066Z,2068
2018-04-13T11:43:47.356Z,1992
2018-04-13T11:44:57.544Z,2076
2018-04-13T11:46:07.798Z,2216
2018-04-13T11:47:17.968Z,2444
2018-04-13T11:48:28.166Z,2808
2018-04-13T11:49:38.419Z,3472
2018-04-13T11:50:48.668Z,4484
2018-04-13T11:51:58.976Z,6144
2018-04-13T11:53:09.166Z,8552
2018-04-13T11:54:19.333Z,11892
2018-04-13T11:55:29.521Z,16448
2018-04-13T11:56:39.690Z,25472
2018-04-13T11:57:49.892Z,29024
2018-04-13T11:59:00.140Z,25472
2018-04-13T12:00:10.387Z,25184
2018-04-13T12:01:20.615Z,25600
2018-04-13T12:02:30.931Z,26816
2018-04-13T12:03:41.212Z,49184
2018-04-13T12:04:51.373Z,103424
2018-04-13T12:06:01.611Z,96384
2018-04-13T12:07:11.802Z,94496
2018-04-13T12:08:21.806Z,90080
2018-04-13T12:09:32.222Z,58112
2018-04-13T12:10:42.388Z,28800
2018-04-13T12:11:52.581Z,25344
2018-04-13T12:13:02.866Z,17568
2018-04-13T12:14:13.147Z,15072
2018-04-13T12:15:24.174Z,15232
2018-04-13T12:16:35.477Z,17632
2018-04-13T12:17:45.739Z,20800
2018-04-13T12:18:55.940Z,90944
2018-04-13T12:20:06.116Z,26496
2018-04-13T12:21:16.286Z,43520
2018-04-13T12:22:26.504Z,52416
2018-04-13T12:23:36.770Z,36736
2018-04-13T12:24:49.669Z,37952
2018-04-13T12:25:59.854Z,22272
2018-04-13T12:27:10.018Z,23040
2018-04-13T12:30:52.436Z,10120
2018-04-13T12:32:02.647Z,9540
2018-04-13T12:33:12.562Z,8444
2018-04-13T12:34:22.858Z,7208
2018-04-13T12:35:33.097Z,5824
2018-04-13T12:36:43.317Z,4708
2018-04-13T12:37:53.531Z,3868
2018-04-13T12:39:03.742Z,3396
2018-04-13T12:40:13.979Z,3176
2018-04-13T12:41:24.218Z,2956
2018-04-13T12:42:34.487Z,2780
2018-04-13T12:43:44.675Z,2864
2018-04-13T12:44:54.854Z,2876
2018-04-13T12:46:05.028Z,2940
2018-04-13T12:47:15.187Z,3140
2018-04-13T12:48:25.570Z,3148
2018-04-13T12:49:35.875Z,2940
2018-04-13T12:50:46.042Z,2732
2018-04-13T12:51:55.974Z,2508
2018-04-13T12:53:06.222Z,2336
2018-04-13T12:54:17.014Z,2268
2018-04-13T12:55:27.200Z,2340
2018-04-13T12:56:37.655Z,2744
2018-04-13T12:57:47.946Z,3352
2018-04-13T12:58:58.162Z,4020
2018-04-13T13:00:08.375Z,4584
2018-04-13T13:01:18.595Z,5152
2018-04-13T13:02:28.824Z,5872
2018-04-13T13:03:38.990Z,6564
2018-04-13T13:04:48.902Z,6648
2018-04-13T13:05:59.161Z,5652
2018-04-13T13:07:09.386Z,5136
2018-04-13T13:08:19.597Z,4304
2018-04-13T13:09:29.795Z,3408
2018-04-13T13:10:39.991Z,2500
2018-04-13T13:11:50.202Z,2132
2018-04-13T13:13:00.413Z,2220
2018-04-13T13:14:10.585Z,2456
2018-04-13T13:15:20.728Z,2488
2018-04-13T13:16:30.891Z,2808
2018-04-13T13:17:40.784Z,4040
2018-04-13T13:18:50.974Z,5864
2018-04-13T13:20:01.170Z,8768
2018-04-13T13:21:11.357Z,18592
2018-04-13T13:22:21.539Z,7596
2018-04-13T13:23:31.776Z,7620
2018-04-13T13:24:42.009Z,7572
2018-04-13T13:25:52.257Z,7084
2018-04-13T13:27:02.192Z,6232
2018-04-13T13:28:12.383Z,5432
2018-04-13T13:29:22.570Z,5032
2018-04-13T13:30:32.759Z,5732
2018-04-13T13:31:43.102Z,7988
2018-04-13T13:32:53.270Z,11812
2018-04-13T13:34:03.435Z,13744
2018-04-13T13:35:13.608Z,20096
2018-04-13T13:36:23.522Z,31392
2018-04-13T13:37:33.992Z,58464
2018-04-13T13:38:44.194Z,69344
2018-04-13T13:39:54.442Z,67936
2018-04-13T13:41:04.606Z,56448
2018-04-13T13:42:14.832Z,58720
2018-04-13T13:43:25.039Z,64736
2018-04-13T13:44:35.263Z,63552
2018-04-13T13:45:45.525Z,56480
2018-04-13T13:46:55.706Z,58048
2018-04-13T13:48:05.914Z,56736
2018-04-13T13:49:16.250Z,56160
2018-04-13T13:51:39.239Z,49248
2018-04-13T13:52:49.173Z,47488
2018-04-13T13:53:59.386Z,58752
2018-04-13T13:55:09.620Z,41632
2018-04-13T13:56:21.467Z,17856
2018-04-13T13:57:32.667Z,15360
2018-04-13T13:59:59.097Z,13036
2018-04-13T14:01:09.318Z,11416
2018-04-13T14:02:19.511Z,9404
2018-04-13T14:03:29.711Z,8812
2018-04-13T14:04:39.950Z,9388
2018-04-13T14:05:50.100Z,9092
2018-04-13T14:07:00.304Z,10800
2018-04-13T14:08:10.453Z,12988
2018-04-13T14:09:20.632Z,16736
2018-04-13T14:10:30.836Z,32416
2018-04-13T14:11:41.039Z,18752
2018-04-13T14:12:51.331Z,19936
2018-04-13T14:14:02.552Z,19456
2018-04-13T14:15:12.787Z,15168
2018-04-13T14:16:23.002Z,12156
2018-04-13T14:17:33.188Z,10176
2018-04-13T14:18:43.355Z,8916
2018-04-13T14:19:53.535Z,7368
2018-04-13T14:21:03.843Z,5884
2018-04-13T14:22:14.200Z,4868
2018-04-13T14:23:24.431Z,3868
2018-04-13T14:24:34.613Z,2904
2018-04-13T14:25:44.851Z,2284
2018-04-13T14:26:55.781Z,1916
2018-04-13T14:28:06.317Z,1620
2018-04-13T14:29:16.535Z,1520
2018-04-13T14:30:27.016Z,1544
2018-04-13T14:31:37.405Z,1812
2018-04-13T14:32:47.694Z,1976
2018-04-13T14:33:57.880Z,2076
2018-04-13T14:35:08.123Z,2196
2018-04-13T14:36:18.303Z,2296
2018-04-13T14:37:28.461Z,2492
2018-04-13T14:38:38.644Z,2620
2018-04-13T14:39:48.887Z,2740
2018-04-13T14:40:59.183Z,2892
2018-04-13T14:42:09.397Z,2920
2018-04-13T14:43:19.664Z,2888
2018-04-13T14:44:29.939Z,2816
2018-04-13T14:45:40.122Z,2840
2018-04-13T14:46:50.332Z,2852
2018-04-13T14:48:00.567Z,2112
2018-04-13T14:49:10.742Z,1632
2018-04-13T14:50:20.981Z,1372
2018-04-13T14:51:31.201Z,1200
2018-04-13T14:52:41.484Z,992
2018-04-13T14:53:51.708Z,1208
2018-04-13T14:55:01.660Z,1456
2018-04-13T14:56:11.689Z,1712
2018-04-13T14:57:21.920Z,2436
2018-04-13T14:58:32.107Z,3256
2018-04-13T14:59:42.339Z,3916
2018-04-13T15:00:52.607Z,4464
2018-04-13T15:02:02.861Z,4808
2018-04-13T15:03:13.068Z,4672
2018-04-13T15:04:23.247Z,4068
2018-04-13T15:05:33.504Z,2684
2018-04-13T15:06:43.715Z,2692
2018-04-13T15:07:53.649Z,4384
2018-04-13T15:09:03.873Z,6096
2018-04-13T15:10:14.226Z,8668
2018-04-13T15:11:24.526Z,24256
2018-04-13T15:12:34.749Z,16320
2018-04-13T15:13:45.132Z,3632
2018-04-13T15:14:55.406Z,2724
2018-04-13T15:16:05.622Z,3408
2018-04-13T15:17:16.026Z,4484
2018-04-13T15:18:26.268Z,4940
2018-04-13T15:19:36.483Z,4780
2018-04-13T15:20:46.715Z,4292
2018-04-13T15:21:56.882Z,3912
2018-04-13T15:23:07.092Z,3664
2018-04-13T15:24:17.402Z,3644
2018-04-13T15:25:27.625Z,3532
2018-04-13T15:26:37.849Z,3252
2018-04-13T15:27:48.061Z,3156
2018-04-13T15:28:58.267Z,2916
2018-04-13T15:30:08.516Z,2672
2018-04-13T15:31:18.721Z,2556
2018-04-13T15:32:28.946Z,2496
2018-04-13T15:33:39.120Z,2440
2018-04-13T15:34:49.346Z,2440
2018-04-13T15:35:59.610Z,2508
2018-04-13T15:37:09.832Z,2596
2018-04-13T15:38:20.194Z,2644
2018-04-13T15:39:30.383Z,2664
2018-04-13T15:40:40.569Z,2688
2018-04-13T15:41:50.762Z,2728
2018-04-13T15:43:00.927Z,2824
2018-04-13T15:44:11.136Z,3000
2018-04-13T15:45:21.052Z,3172
2018-04-13T15:46:31.234Z,3244
2018-04-13T15:47:41.432Z,3116
2018-04-13T15:48:51.686Z,2860
2018-04-13T15:50:01.891Z,2668
2018-04-13T15:51:12.109Z,2508
2018-04-13T15:52:22.364Z,2356
2018-04-13T15:53:32.574Z,2296
2018-04-13T15:54:42.761Z,2352
2018-04-13T15:55:52.636Z,2504
2018-04-13T15:57:02.857Z,2700
2018-04-13T15:58:13.187Z,2864
2018-04-13T15:59:23.424Z,3012
2018-04-13T16:00:33.615Z,3156
2018-04-13T16:01:43.905Z,3312
2018-04-13T16:02:54.172Z,3476
2018-04-13T16:04:04.388Z,3624
2018-04-13T16:05:14.596Z,3868
2018-04-13T16:06:24.894Z,4228
2018-04-13T16:07:35.089Z,4576
2018-04-13T16:08:45.308Z,4896
2018-04-13T16:09:55.590Z,5248
2018-04-13T16:11:05.817Z,5584
2018-04-13T16:12:16.165Z,5888
2018-04-13T16:13:26.328Z,6120
2018-04-13T16:14:36.876Z,6096